Time;durP1;ratioP1;P1;durP2;ratioP2;P2;SDS_P1;SDS_P2;PMS_P1;PMS_P2;Temp;Humidity;BMP_temperature;BMP_pressure;BME280_temperature;BME280_humidity;BME280_pressure;Samples;Min_cycle;Max_cycle;Signal;HPM_P1;HPM_P2
2022/05/28 00:00:18;;;;;;;5.38;1.90;;;7.90;1.00;;;7.74;90.35;97981.13;5040725;27;119976;-73
2022/05/28 00:02:48;;;;;;;7.45;1.90;;;7.90;1.00;;;7.79;90.36;97980.97;5040776;27;120619;-74
2022/05/28 00:05:16;;;;;;;9.20;1.80;;;7.90;1.00;;;7.78;90.58;97987.47;5040278;27;129924;-72
2022/05/28 00:07:46;;;;;;;6.03;1.85;;;7.90;1.00;;;7.80;90.46;97990.63;5041039;27;129796;-73
2022/05/28 00:10:19;;;;;;;5.05;1.92;;;7.80;1.00;;;7.74;90.76;97989.25;5025361;27;119323;-74
2022/05/28 00:12:48;;;;;;;4.50;1.70;;;7.70;1.00;;;7.74;90.70;97986.53;5039975;27;119400;-76
2022/05/28 00:15:17;;;;;;;7.85;1.98;;;7.70;1.00;;;7.71;89.88;97989.91;5039046;27;131238;-71
2022/05/28 00:17:45;;;;;;;5.30;1.95;;;7.80;1.00;;;7.70;90.67;97988.34;5039972;27;129954;-74
2022/05/28 00:20:14;;;;;;;4.40;1.80;;;7.70;1.00;;;7.66;90.88;97995.50;5041807;27;120621;-75
2022/05/28 00:22:46;;;;;;;5.05;2.03;;;7.60;1.00;;;7.62;90.96;97989.16;5040640;27;119501;-71
2022/05/28 00:25:17;;;;;;;7.32;1.73;;;7.60;1.00;;;7.63;91.25;97985.34;5055419;27;129714;-74
2022/05/28 00:27:46;;;;;;;9.75;1.88;;;7.50;1.00;;;7.60;91.21;97994.13;5055469;27;130385;-75
2022/05/28 00:30:17;;;;;;;6.60;2.08;;;7.60;1.00;;;7.58;91.25;97988.25;5025326;27;119592;-73
2022/05/28 00:32:46;;;;;;;6.35;1.90;;;7.60;1.00;;;7.53;92.29;97992.72;5039921;27;120004;-73
2022/05/28 00:35:17;;;;;;;6.32;1.83;;;7.60;1.00;;;7.48;92.41;97990.22;5039732;27;129856;-75
2022/05/28 00:37:49;;;;;;;4.35;1.67;;;7.50;1.00;;;7.42;92.64;97996.94;5040004;27;130131;-75
2022/05/28 00:40:21;;;;;;;4.75;1.77;;;7.40;1.00;;;7.43;93.00;97995.78;5039036;27;123290;-76
2022/05/28 00:42:50;;;;;;;7.85;2.10;;;7.40;1.00;;;7.41;92.56;97995.34;5039925;27;121831;-72
2022/05/28 00:45:19;;;;;;;5.38;2.20;;;7.40;1.00;;;7.45;92.68;97998.97;5039546;27;129812;-74
2022/05/28 00:47:51;;;;;;;6.25;2.42;;;7.50;1.00;;;7.37;92.83;97994.44;5039533;27;129638;-74
2022/05/28 00:50:21;;;;;;;7.47;1.80;;;7.40;1.00;;;7.35;93.09;97991.25;5024812;27;118586;-74
2022/05/28 00:52:51;;;;;;;6.32;2.00;;;7.30;1.00;;;7.36;92.94;97990.13;5040172;27;119647;-75
2022/05/28 00:55:20;;;;;;;7.07;2.00;;;7.40;1.00;;;7.32;92.79;97979.22;5038217;27;129980;-74
2022/05/28 00:57:48;;;;;;;5.82;1.92;;;7.30;1.00;;;7.31;92.98;97985.72;5039714;27;129820;-73
2022/05/28 01:00:25;;;;;;;11.32;2.03;;;7.30;1.00;;;7.25;93.30;97980.84;5041914;27;119278;-74
2022/05/28 01:03:00;;;;;;;7.38;2.17;;;7.20;1.00;;;7.22;92.84;97981.50;5041570;27;118537;-74
2022/05/28 01:05:35;;;;;;;7.70;1.77;;;7.30;1.00;;;7.26;92.43;97985.09;5037999;27;130958;-70
2022/05/28 01:08:14;;;;;;;6.55;2.28;;;7.40;1.00;;;7.27;92.14;97995.56;5024431;27;129664;-72
2022/05/28 01:10:51;;;;;;;10.35;1.88;;;7.40;1.00;;;7.28;91.51;97991.78;5039624;27;120267;-72
2022/05/28 01:13:27;;;;;;;8.80;1.85;;;7.40;1.00;;;7.32;91.13;97991.91;5039909;27;119943;-71
2022/05/28 01:16:03;;;;;;;7.97;1.90;;;7.40;1.00;;;7.28;91.11;97996.38;5037948;27;130686;-70
2022/05/28 01:18:37;;;;;;;5.88;1.70;;;7.40;1.00;;;7.25;91.16;97986.25;5039006;27;129875;-73
2022/05/28 01:21:10;;;;;;;10.18;2.50;;;7.40;1.00;;;7.30;90.89;97996.84;5040766;27;119534;-72
2022/05/28 01:23:52;;;;;;;4.80;2.10;;;7.40;1.00;;;7.31;90.13;97990.34;5039370;27;120467;-75
2022/05/28 01:26:34;;;;;;;6.25;1.80;;;7.50;1.00;;;7.25;90.48;97988.94;5037538;27;130038;-72
2022/05/28 01:29:10;;;;;;;8.57;1.98;;;7.40;1.00;;;7.25;90.13;97991.66;5038950;27;129429;-72
2022/05/28 01:31:39;;;;;;;6.28;1.73;;;7.40;1.00;;;7.28;90.47;97996.38;5038078;27;122975;-71
2022/05/28 01:34:11;;;;;;;6.05;2.28;;;7.30;1.00;;;7.29;90.14;97985.28;5040748;27;120752;-74
2022/05/28 01:36:41;;;;;;;4.55;2.00;;;7.30;1.00;;;7.29;90.31;97976.38;5038597;27;130002;-75
2022/05/28 01:39:11;;;;;;;9.60;2.08;;;7.30;1.00;;;7.26;90.41;97974.31;5040065;27;128550;-75
2022/05/28 01:41:41;;;;;;;8.30;1.98;;;7.20;1.00;;;7.17;90.15;97980.56;5039070;27;119693;-72
2022/05/28 01:44:13;;;;;;;4.63;1.48;;;7.30;1.00;;;7.26;89.98;97982.41;5024065;27;119871;-74
2022/05/28 01:46:45;;;;;;;7.88;2.38;;;7.20;1.00;;;7.18;90.65;97987.56;5038644;27;131090;-74
2022/05/28 01:49:17;;;;;;;7.30;2.10;;;7.20;1.00;;;7.23;90.58;97988.47;5038952;27;130431;-75
2022/05/28 01:51:51;;;;;;;7.30;2.30;;;7.10;1.00;;;7.24;90.42;97981.97;5038894;27;119786;-72
2022/05/28 01:54:28;;;;;;;6.28;1.98;;;7.10;1.00;;;7.18;90.78;97986.75;5038803;27;119508;-74
2022/05/28 01:56:57;;;;;;;6.65;2.30;;;7.10;1.00;;;7.20;91.22;97990.69;5037178;27;129903;-73
2022/05/28 01:59:30;;;;;;;6.15;1.77;;;7.10;1.00;;;7.23;90.76;97999.25;5038811;27;130632;-68
2022/05/28 02:02:02;;;;;;;4.75;1.92;;;7.20;1.00;;;7.24;90.87;97995.44;5038871;27;119786;-72
2022/05/28 02:04:33;;;;;;;7.15;1.95;;;7.20;1.00;;;7.30;89.60;97992.22;5040889;27;118784;-74
2022/05/28 02:07:02;;;;;;;7.28;2.15;;;7.30;1.00;;;7.35;89.58;97986.66;5040310;27;129603;-75
2022/05/28 02:09:41;;;;;;;6.82;1.60;;;7.20;1.00;;;7.36;88.84;97992.84;5038700;27;131343;-74
2022/05/28 02:12:21;;;;;;;8.85;2.03;;;7.30;1.00;;;7.45;88.76;97996.28;5054787;27;119772;-72
2022/05/28 02:15:09;;;;;;;9.52;2.00;;;7.30;1.00;;;7.41;88.81;97995.34;5038910;27;120052;-75
2022/05/28 02:17:45;;;;;;;6.03;1.70;;;7.30;1.00;;;7.45;88.45;97990.88;5038204;27;129876;-76
2022/05/28 02:20:24;;;;;;;5.25;1.75;;;7.30;1.00;;;7.60;88.02;97991.41;5039164;27;129744;-75
2022/05/28 02:23:02;;;;;;;6.45;1.80;;;7.50;1.00;;;7.58;87.84;97988.25;5038967;27;120986;-76
2022/05/28 02:25:37;;;;;;;7.00;2.20;;;7.50;1.00;;;7.65;88.04;97993.91;5023247;27;120827;-71
2022/05/28 02:28:09;;;;;;;7.35;1.75;;;7.40;1.00;;;7.72;87.52;97986.09;5037991;27;131247;-73
2022/05/28 02:30:50;;;;;;;9.32;2.22;;;7.40;1.00;;;7.72;87.21;98000.38;5038578;27;129647;-75
2022/05/28 02:33:21;;;;;;;4.72;1.65;;;7.50;1.00;;;7.82;87.54;97998.41;5057365;27;120236;-75
2022/05/28 02:35:49;;;;;;;7.85;2.17;;;7.50;1.00;;;7.88;87.01;98002.47;5041412;27;119826;-74
2022/05/28 02:38:18;;;;;;;6.20;2.28;;;7.40;1.00;;;7.89;86.99;97995.97;5041314;27;130582;-74
2022/05/28 02:40:46;;;;;;;7.55;2.17;;;7.50;1.00;;;7.97;86.68;97999.72;5041775;27;129422;-76
2022/05/28 02:43:15;;;;;;;7.55;1.80;;;7.50;1.00;;;7.92;86.42;98000.72;5041778;27;119900;-75
2022/05/28 02:45:44;;;;;;;5.30;1.98;;;7.50;1.00;;;8.01;86.60;98003.31;5041824;27;119511;-75
2022/05/28 02:48:14;;;;;;;4.10;1.90;;;7.50;1.00;;;8.11;86.27;98005.63;5040501;27;130178;-77
2022/05/28 02:50:43;;;;;;;6.10;1.98;;;7.50;1.00;;;8.14;85.82;98004.97;5040379;27;129879;-77
2022/05/28 02:53:13;;;;;;;7.68;2.38;;;7.50;1.00;;;8.14;85.94;98007.69;5042259;27;120158;-76
2022/05/28 02:55:42;;;;;;;7.10;2.03;;;7.50;1.00;;;8.22;85.87;98006.78;5045250;27;118862;-74
2022/05/28 02:58:11;;;;;;;5.88;1.92;;;7.50;1.00;;;8.30;85.83;98007.06;5041569;27;130318;-74
2022/05/28 03:00:40;;;;;;;6.65;2.00;;;7.60;1.00;;;8.35;85.52;98020.34;5041454;27;130287;-72
2022/05/28 03:03:09;;;;;;;4.75;1.77;;;7.60;1.00;;;8.57;84.79;98014.63;5041788;27;119504;-76
2022/05/28 03:05:38;;;;;;;7.00;1.80;;;7.80;1.00;;;9.32;83.61;98018.19;5042252;27;119994;-75
2022/05/28 03:08:07;;;;;;;8.10;1.95;;;8.20;1.00;;;10.51;78.55;98018.91;5041485;27;130976;-72
2022/05/28 03:10:36;;;;;;;6.18;1.80;;;8.90;1.00;;;12.11;72.20;98023.06;5041434;27;129952;-78
2022/05/28 03:13:04;;;;;;;8.20;1.70;;;9.60;1.00;;;13.32;67.15;98017.41;5040568;27;122719;-75
2022/05/28 03:15:32;;;;;;;8.00;1.60;;;10.00;1.00;;;14.76;62.13;98023.94;5041472;27;122687;-79
2022/05/28 03:18:01;;;;;;;3.75;1.38;;;10.80;1.00;;;15.24;56.79;98027.53;5041046;27;130240;-81
2022/05/28 03:20:30;;;;;;;5.18;1.40;;;10.30;99.90;;;14.43;57.75;98020.06;5024275;27;129449;-77
2022/05/28 03:23:00;;;;;;;4.70;1.75;;;9.60;1.00;;;13.58;59.45;98019.41;5041149;27;120572;-74
2022/05/28 03:25:29;;;;;;;8.10;1.77;;;8.70;1.00;;;12.50;63.83;98017.59;5043163;27;119714;-75
2022/05/28 03:27:59;;;;;;;7.22;2.22;;;8.60;1.00;;;11.62;67.01;98018.09;5040860;27;129807;-76
2022/05/28 03:30:28;;;;;;;6.18;2.30;;;8.50;1.00;;;11.18;69.28;98015.56;5040961;27;130013;-74
2022/05/28 03:32:56;;;;;;;2.97;1.30;;;8.50;1.00;;;10.86;71.14;98005.50;5041625;27;119864;-71
2022/05/28 03:35:25;;;;;;;4.32;1.50;;;8.50;1.00;;;10.47;72.28;98007.19;5041355;27;119967;-72
2022/05/28 03:37:54;;;;;;;5.65;1.70;;;8.40;1.00;;;10.29;73.88;98004.75;5039040;27;130087;-74
2022/05/28 03:40:24;;;;;;;5.53;1.92;;;8.50;1.00;;;10.13;74.76;98007.41;5025632;27;128161;-73
2022/05/28 03:42:52;;;;;;;6.63;1.98;;;8.50;1.00;;;10.04;75.56;98010.25;5039666;27;119820;-75
2022/05/28 03:45:20;;;;;;;7.15;2.17;;;8.50;1.00;;;9.98;76.21;98003.50;5040422;27;120729;-74
2022/05/28 03:47:49;;;;;;;5.10;1.80;;;8.60;1.00;;;9.88;76.57;98012.91;5040531;27;130142;-73
2022/05/28 03:50:18;;;;;;;6.22;2.05;;;8.40;1.00;;;9.77;76.41;98014.53;5040314;27;129409;-75
2022/05/28 03:52:46;;;;;;;7.43;1.88;;;8.30;1.00;;;9.69;76.94;98010.81;5040668;27;119912;-75
2022/05/28 03:55:14;;;;;;;6.38;1.88;;;8.30;1.00;;;9.64;78.22;98013.75;5041427;27;119246;-75
2022/05/28 03:57:46;;;;;;;4.72;1.58;;;8.40;1.00;;;9.75;78.42;98013.28;5040363;27;131262;-75
2022/05/28 04:00:16;;;;;;;3.20;1.55;;;8.50;1.00;;;9.67;77.57;98017.69;5040265;27;129400;-75
2022/05/28 04:02:45;;;;;;;5.65;1.63;;;8.40;1.00;;;9.60;78.11;98007.44;5039215;27;121967;-75
2022/05/28 04:05:13;;;;;;;6.00;1.70;;;8.30;1.00;;;9.66;78.00;98016.91;5039734;27;122853;-74
2022/05/28 04:07:43;;;;;;;6.25;2.00;;;8.30;1.00;;;9.83;78.62;98024.00;5040200;27;130569;-75
2022/05/28 04:10:11;;;;;;;5.65;1.90;;;8.50;1.00;;;10.23;77.79;98023.19;5016768;27;130839;-77
2022/05/28 04:12:40;;;;;;;6.43;1.80;;;8.80;1.00;;;10.68;75.76;98018.59;5025093;27;119497;-76
2022/05/28 04:15:12;;;;;;;5.00;1.85;;;9.10;1.00;;;10.96;74.67;98015.81;5040543;27;119835;-75
2022/05/28 04:17:41;;;;;;;5.78;2.05;;;9.40;1.00;;;10.95;74.13;98029.72;5040023;27;130263;-75
2022/05/28 04:20:13;;;;;;;8.68;2.05;;;9.10;1.00;;;10.97;74.01;98032.91;5023064;27;130225;-75
2022/05/28 04:22:41;;;;;;;4.88;1.70;;;9.00;1.00;;;11.15;73.19;98031.41;5039975;27;120031;-75
2022/05/28 04:25:10;;;;;;;7.68;1.80;;;9.10;1.00;;;11.14;73.24;98027.13;5038712;27;119991;-74
2022/05/28 04:27:42;;;;;;;4.88;1.58;;;9.10;1.00;;;11.13;73.68;98020.09;5020592;27;130231;-74
2022/05/28 04:30:13;;;;;;;5.05;1.60;;;9.10;1.00;;;11.19;73.63;98027.97;5039949;27;129562;-74
2022/05/28 04:32:42;;;;;;;5.93;1.88;;;9.20;1.00;;;11.00;74.11;98021.34;5040073;27;119963;-75
2022/05/28 04:35:11;;;;;;;10.48;2.28;;;9.00;1.00;;;10.97;74.54;98035.63;5040530;27;119857;-76
2022/05/28 04:37:39;;;;;;;7.22;2.35;;;9.00;1.00;;;10.97;74.98;98032.91;5039688;27;130242;-78
2022/05/28 04:40:10;;;;;;;5.18;1.80;;;9.00;1.00;;;10.88;75.82;98029.56;5040232;27;129829;-75
2022/05/28 04:42:39;;;;;;;5.00;1.85;;;9.10;1.00;;;10.82;75.61;98030.97;5022079;27;121039;-75
2022/05/28 04:45:09;;;;;;;5.28;1.77;;;9.00;1.00;;;10.68;77.28;98032.16;5040137;27;119826;-76
2022/05/28 04:47:38;;;;;;;7.65;2.40;;;9.00;1.00;;;10.64;76.86;98036.69;5039582;27;129911;-76
2022/05/28 04:50:09;;;;;;;5.60;2.20;;;9.00;1.00;;;10.69;76.00;98044.59;5039077;27;130181;-74
2022/05/28 04:52:38;;;;;;;4.97;1.98;;;9.00;1.00;;;10.96;76.40;98048.38;5023489;27;121351;-75
2022/05/28 04:55:08;;;;;;;5.07;1.73;;;9.30;1.00;;;11.17;74.62;98041.13;5039856;27;121858;-75
2022/05/28 04:57:36;;;;;;;7.22;1.90;;;9.10;1.00;;;11.37;73.79;98042.78;5038715;27;130296;-75
2022/05/28 05:00:09;;;;;;;6.25;1.70;;;9.40;1.00;;;11.57;74.05;98034.69;5039435;27;129828;-75
2022/05/28 05:02:39;;;;;;;6.72;2.33;;;9.80;1.00;;;11.66;74.06;98036.06;5039781;27;120438;-76
2022/05/28 05:05:09;;;;;;;6.47;1.73;;;9.90;1.00;;;11.92;72.08;98042.03;5039267;27;119227;-73
2022/05/28 05:07:38;;;;;;;8.25;2.30;;;9.90;1.00;;;11.63;71.89;98036.00;5024254;27;130257;-73
2022/05/28 05:10:09;;;;;;;6.30;1.95;;;9.80;1.00;;;11.87;71.27;98026.81;5024676;27;129285;-74
2022/05/28 05:12:37;;;;;;;6.68;1.90;;;9.80;1.00;;;12.19;69.83;98035.66;5039741;27;119776;-76
2022/05/28 05:15:08;;;;;;;4.97;2.00;;;10.00;1.00;;;12.08;69.71;98034.66;5039451;27;119532;-76
2022/05/28 05:17:36;;;;;;;6.90;2.13;;;10.10;1.00;;;12.41;68.51;98041.53;5037459;27;130567;-77
2022/05/28 05:20:09;;;;;;;6.53;2.05;;;10.10;1.00;;;12.14;69.35;98033.22;5033523;27;129684;-75
2022/05/28 05:22:38;;;;;;;5.30;1.80;;;10.00;1.00;;;12.26;68.93;98028.78;5001429;28;119752;-75
2022/05/28 05:25:09;;;;;;;6.57;2.20;;;10.00;1.00;;;12.23;69.66;98041.97;5017832;28;119568;-75
2022/05/28 05:27:38;;;;;;;8.52;2.10;;;10.10;1.00;;;11.78;70.69;98043.34;5017185;28;129572;-77
2022/05/28 05:30:08;;;;;;;6.20;2.08;;;9.90;1.00;;;11.84;71.43;98041.91;5018910;28;130393;-77
2022/05/28 05:32:36;;;;;;;6.57;2.15;;;9.90;1.00;;;12.03;70.82;98038.44;5004301;28;119427;-77
2022/05/28 05:35:08;;;;;;;6.05;2.30;;;10.20;1.00;;;11.76;71.42;98039.38;5021984;27;119407;-75
2022/05/28 05:37:36;;;;;;;17.05;3.63;;;9.90;1.00;;;11.87;72.04;98040.38;5021125;27;130167;-76
2022/05/28 05:40:07;;;;;;;7.45;2.22;;;10.00;1.00;;;11.90;70.92;98047.06;5020764;27;129975;-77
2022/05/28 05:42:35;;;;;;;8.55;2.30;;;9.90;1.00;;;12.21;69.62;98046.97;5038877;27;122139;-76
2022/05/28 05:45:04;;;;;;;13.13;2.63;;;9.90;1.00;;;12.77;68.93;98042.19;5039265;27;121837;-79
2022/05/28 05:47:34;;;;;;;15.35;2.83;;;10.40;1.00;;;12.64;68.07;98044.31;5038858;27;130049;-72
2022/05/28 05:50:03;;;;;;;7.38;2.38;;;10.10;1.00;;;12.99;68.42;98042.56;5039022;27;129489;-78
2022/05/28 05:52:34;;;;;;;5.43;2.13;;;10.80;1.00;;;12.95;67.17;98042.53;5038449;27;119909;-76
2022/05/28 05:55:02;;;;;;;10.80;2.03;;;10.80;1.00;;;13.11;64.70;98045.13;5005003;27;118754;-76
2022/05/28 05:57:31;;;;;;;12.80;2.85;;;10.50;1.00;;;13.09;64.79;98041.97;5023134;27;129966;-76
2022/05/28 05:59:59;;;;;;;6.85;2.17;;;10.30;1.00;;;13.26;65.58;98046.94;5020197;27;129556;-76
2022/05/28 06:02:30;;;;;;;5.80;2.00;;;10.70;1.00;;;13.22;65.83;98037.91;5038666;27;119778;-80
2022/05/28 06:05:00;;;;;;;7.03;2.40;;;10.80;1.00;;;13.26;66.10;98037.94;5038261;27;119071;-78
2022/05/28 06:07:29;;;;;;;12.15;2.50;;;10.90;1.00;;;13.45;64.74;98035.19;5036170;27;130385;-73
2022/05/28 06:09:59;;;;;;;9.23;2.60;;;10.70;1.00;;;13.30;64.63;98036.84;5022762;27;129464;-78
2022/05/28 06:12:27;;;;;;;9.27;2.60;;;10.70;1.00;;;13.22;67.06;98040.63;5003689;27;119027;-77
2022/05/28 06:14:56;;;;;;;6.45;2.33;;;11.10;1.00;;;13.07;65.52;98045.06;5019699;27;119071;-77
2022/05/28 06:17:25;;;;;;;7.43;1.95;;;10.70;1.00;;;13.03;65.29;98044.22;5001611;28;129758;-73
2022/05/28 06:19:53;;;;;;;6.85;1.48;;;10.70;1.00;;;13.06;65.46;98037.25;5032918;27;130854;-75
2022/05/28 06:22:22;;;;;;;6.05;1.70;;;10.80;1.00;;;12.92;65.84;98037.81;5048490;27;119690;-77
2022/05/28 06:24:50;;;;;;;10.40;2.38;;;10.80;1.00;;;12.90;65.94;98051.78;5048895;27;119411;-75
2022/05/28 06:27:20;;;;;;;4.65;1.90;;;10.60;1.00;;;13.09;65.93;98058.31;5037564;27;130012;-77
2022/05/28 06:29:49;;;;;;;7.22;2.10;;;10.70;1.00;;;13.22;64.92;98050.75;5021296;27;128665;-75
2022/05/28 06:32:17;;;;;;;5.70;2.05;;;10.90;1.00;;;13.34;64.58;98047.06;5019805;27;121977;-73
2022/05/28 06:34:45;;;;;;;2.63;1.52;;;10.80;1.00;;;13.39;62.65;98049.50;5037990;27;122004;-75
2022/05/28 06:37:15;;;;;;;5.70;1.70;;;10.60;1.00;;;13.25;62.81;98039.91;5041874;27;131622;-72
2022/05/28 06:39:43;;;;;;;7.03;1.70;;;10.50;1.00;;;13.20;63.27;98048.38;5025036;27;129838;-71
2022/05/28 06:42:12;;;;;;;10.27;2.53;;;10.90;99.90;;;13.50;62.99;98045.00;5036116;27;119715;-74
2022/05/28 06:44:42;;;;;;;9.77;2.58;;;11.20;99.90;;;13.62;62.71;98047.50;5036988;27;119722;-75
2022/05/28 06:47:11;;;;;;;4.15;1.55;;;11.00;1.00;;;13.10;62.60;98043.53;5037634;27;129956;-72
2022/05/28 06:49:40;;;;;;;9.25;2.40;;;10.90;99.90;;;13.09;62.95;98047.44;5037483;27;130125;-75
2022/05/28 06:52:08;;;;;;;6.32;1.80;;;10.90;99.90;;;12.94;62.85;98041.72;5037405;27;119711;-77
2022/05/28 06:54:37;;;;;;;4.30;1.98;;;10.70;99.90;;;12.89;64.10;98049.41;5021266;27;119700;-75
2022/05/28 06:57:06;;;;;;;7.43;1.75;;;10.90;99.90;;;12.93;64.79;98045.63;5036079;27;129995;-71
2022/05/28 06:59:34;;;;;;;9.65;2.83;;;10.80;1.00;;;13.28;63.50;98054.75;5037069;27;129587;-75
2022/05/28 07:02:05;;;;;;;5.63;2.38;;;11.00;99.90;;;13.97;61.86;98049.16;5037576;27;119717;-77
2022/05/28 07:04:33;;;;;;;9.60;2.60;;;11.50;99.90;;;14.58;60.08;98046.38;5022349;27;119086;-75
2022/05/28 07:07:02;;;;;;;8.68;1.83;;;11.60;99.90;;;14.47;59.42;98048.22;5037170;27;130148;-74
2022/05/28 07:09:30;;;;;;;5.57;2.10;;;11.40;99.90;;;14.07;59.44;98044.22;5026139;27;129354;-76
2022/05/28 07:11:58;;;;;;;6.85;1.95;;;11.50;99.90;;;13.63;61.38;98040.91;5038700;27;119852;-76
2022/05/28 07:14:27;;;;;;;23.27;3.67;;;11.10;99.90;;;13.29;62.86;98046.19;5038497;27;120286;-81
2022/05/28 07:16:55;;;;;;;7.57;2.08;;;11.20;99.90;;;13.65;63.41;98037.81;5048547;27;131164;-80
2022/05/28 07:19:26;;;;;;;6.07;1.75;;;11.50;99.90;;;13.77;62.33;98039.53;5039340;27;129586;-76
2022/05/28 07:21:54;;;;;;;5.07;1.33;;;11.50;99.90;;;13.70;60.42;98037.50;5059705;27;123055;-77
2022/05/28 07:24:23;;;;;;;8.27;2.00;;;11.30;99.90;;;13.44;61.54;98051.91;5060979;27;121711;-74
2022/05/28 07:26:52;;;;;;;4.65;1.70;;;10.90;99.90;;;13.36;62.93;98045.56;5041820;27;130507;-73
2022/05/28 07:29:21;;;;;;;6.55;1.88;;;11.10;99.90;;;13.07;62.79;98050.53;5045998;27;128798;-74
2022/05/28 07:31:49;;;;;;;6.70;1.65;;;10.70;99.90;;;13.22;63.33;98048.03;5042434;27;120031;-77
2022/05/28 07:34:17;;;;;;;3.97;1.73;;;11.00;99.90;;;13.50;61.67;98044.22;5057961;27;119605;-74
2022/05/28 07:36:48;;;;;;;5.60;2.03;;;11.20;99.90;;;13.53;61.58;98052.44;5043706;27;130574;-74
2022/05/28 07:39:17;;;;;;;6.53;1.80;;;11.00;99.90;;;13.92;61.86;98046.75;5042684;27;129947;-77
2022/05/28 07:41:46;;;;;;;16.55;2.47;;;11.60;99.90;;;14.11;59.37;98050.50;5031960;27;118360;-75
2022/05/28 07:44:14;;;;;;;6.88;2.10;;;11.40;99.90;;;14.60;58.26;98055.03;5040806;27;121110;-74
2022/05/28 07:46:42;;;;;;;6.07;1.92;;;11.60;99.90;;;14.71;57.37;98045.00;5024407;27;129633;-78
2022/05/28 07:49:11;;;;;;;5.97;1.98;;;11.80;99.90;;;15.14;57.23;98054.75;5040557;27;129423;-77
2022/05/28 07:51:39;;;;;;;6.60;2.15;;;12.10;99.90;;;14.97;55.67;98065.13;5041005;27;120182;-74
2022/05/28 07:54:09;;;;;;;7.55;1.63;;;11.70;99.90;;;14.38;55.74;98060.22;5022398;27;119314;-77
2022/05/28 07:56:38;;;;;;;7.85;1.77;;;11.40;99.90;;;14.02;56.67;98053.50;5008352;27;129844;-74
2022/05/28 07:59:06;;;;;;;10.07;2.22;;;11.30;99.90;;;13.74;58.41;98059.34;5040599;27;129864;-76
2022/05/28 08:01:38;;;;;;;8.13;1.60;;;11.60;99.90;;;13.76;59.62;98062.47;5040403;27;119994;-75
2022/05/28 08:04:07;;;;;;;4.50;1.90;;;11.70;99.90;;;13.97;57.19;98067.47;5034733;27;119078;-73
2022/05/28 08:06:37;;;;;;;8.23;1.98;;;11.40;99.90;;;13.89;58.65;98055.66;5057220;27;129710;-79
2022/05/28 08:09:09;;;;;;;6.78;1.90;;;11.40;99.90;;;13.87;59.51;98063.44;5060567;27;129463;-76
2022/05/28 08:11:38;;;;;;;10.27;2.25;;;11.60;99.90;;;14.18;57.43;98061.53;5059649;27;123129;-77
2022/05/28 08:14:07;;;;;;;4.25;1.65;;;11.70;99.90;;;14.48;57.26;98060.72;5060581;27;122494;-74
2022/05/28 08:16:36;;;;;;;7.55;1.85;;;11.70;99.90;;;14.39;57.79;98056.31;5043012;27;129885;-76
2022/05/28 08:19:04;;;;;;;4.88;1.70;;;11.70;99.90;;;14.19;56.96;98068.53;5043585;27;130028;-75
2022/05/28 08:24:20;;;;;;;6.38;1.67;;;11.40;99.90;;;13.69;58.32;98062.41;5040406;27;120126;-73
2022/05/28 08:26:49;;;;;;;3.47;1.40;;;11.50;99.90;;;13.65;61.46;98057.69;5040102;27;131017;-80
2022/05/28 08:29:22;;;;;;;6.50;1.70;;;11.60;99.90;;;13.72;60.58;98067.91;5040541;27;130180;-79
2022/05/28 08:31:50;;;;;;;5.63;1.90;;;11.40;99.90;;;13.51;62.68;98060.19;5048028;27;119936;-75
2022/05/28 08:34:19;;;;;;;12.23;3.00;;;11.40;99.90;;;13.19;63.04;98063.16;5049717;27;119372;-76
2022/05/28 08:36:47;;;;;;;5.28;1.60;;;11.30;99.90;;;13.18;61.58;98067.00;5039725;27;130444;-74
2022/05/28 08:39:16;;;;;;;3.35;1.38;;;11.30;99.90;;;13.14;62.77;98063.47;5054186;27;130096;-77
2022/05/28 08:41:55;;;;;;;9.45;5.25;;;11.30;99.90;;;13.25;63.87;98072.59;5058702;27;119834;-73
2022/05/28 08:44:28;;;;;;;8.00;2.10;;;11.40;99.90;;;13.24;67.22;98068.28;5053688;27;119732;-72
2022/05/28 08:47:04;;;;;;;7.95;2.05;;;10.70;1.00;;;13.58;64.69;98067.69;5059810;27;131394;-72
2022/05/28 08:49:33;;;;;;;4.80;1.58;;;11.00;99.90;;;13.70;63.55;98066.69;5047026;27;130168;-73
2022/05/28 08:52:09;;;;;;;5.85;1.67;;;11.40;99.90;;;13.77;64.38;98074.97;5039696;27;120437;-75
2022/05/28 08:54:41;;;;;;;12.88;1.95;;;11.60;1.00;;;13.94;61.69;98066.25;5039942;27;119085;-75
2022/05/28 08:57:16;;;;;;;3.75;1.30;;;11.70;99.90;;;14.01;59.83;98065.59;5024286;27;130112;-74
2022/05/28 08:59:53;;;;;;;5.05;1.50;;;11.80;99.90;;;14.16;59.66;98074.72;5039246;27;129798;-73
2022/05/28 09:02:36;;;;;;;5.95;1.63;;;11.60;99.90;;;13.84;60.84;98080.53;5020041;27;121948;-73
2022/05/28 09:05:18;;;;;;;4.18;1.35;;;11.40;99.90;;;13.57;61.30;98072.38;5043228;27;103162;-75
2022/05/28 09:07:47;;;;;;;2.85;1.20;;;11.20;99.90;;;13.07;61.42;98079.66;5038992;27;129731;-76
2022/05/28 09:10:16;;;;;;;5.30;1.60;;;11.00;99.90;;;13.49;59.24;98076.09;5020568;27;130153;-74
2022/05/28 09:12:52;;;;;;;4.15;1.40;;;11.50;99.90;;;13.95;57.09;98067.06;5039004;27;120123;-74
2022/05/28 09:15:21;;;;;;;2.95;1.15;;;11.90;99.90;;;14.13;56.43;98070.81;5039934;27;119703;-73
2022/05/28 09:17:57;;;;;;;7.03;1.77;;;12.30;99.90;;;14.66;56.43;98059.00;5051133;27;130675;-74
2022/05/28 09:20:34;;;;;;;8.68;1.70;;;12.80;99.90;;;14.87;54.92;98057.63;5059608;27;130197;-74
2022/05/28 09:23:03;;;;;;;5.68;1.70;;;13.10;99.90;;;15.13;53.21;98053.19;5043695;27;118147;-77
2022/05/28 09:25:37;;;;;;;2.00;1.10;;;12.80;99.90;;;14.99;49.51;98057.38;5059139;27;119758;-70
2022/05/28 09:28:26;;;;;;;3.47;1.20;;;12.60;99.90;;;15.26;48.11;98062.69;5046583;27;129842;-75
2022/05/28 09:31:06;;;;;;;2.35;1.08;;;12.70;99.90;;;15.52;48.09;98069.09;5046305;27;129748;-75
2022/05/28 09:34:19;;;;;;;3.30;1.15;;;12.90;99.90;;;15.27;46.49;98061.53;5058709;27;120155;-72
2022/05/28 09:36:57;;;;;;;5.10;1.30;;;13.10;99.90;;;16.29;45.36;98055.53;5058560;27;119533;-75
2022/05/28 09:39:40;;;;;;;3.70;1.38;;;13.40;99.90;;;16.85;45.55;98054.13;5057824;27;130773;-76
2022/05/28 09:42:21;;;;;;;10.32;1.50;;;14.10;99.90;;;17.03;44.96;98058.88;5056761;27;130291;-74
2022/05/28 09:45:10;;;;;;;3.53;1.27;;;14.00;99.90;;;16.32;46.39;98057.50;5049783;27;120258;-76
2022/05/28 09:47:47;;;;;;;3.92;1.30;;;13.90;99.90;;;16.16;48.50;98064.06;5042286;27;120354;-74
2022/05/28 09:50:24;;;;;;;4.68;1.15;;;13.50;99.90;;;15.69;48.69;98063.00;5037634;27;130296;-74
2022/05/28 09:56:01;;;;;;;3.20;1.48;;;13.10;99.90;;;15.55;48.69;98063.69;5060406;27;122367;-75
2022/05/28 09:58:36;;;;;;;4.18;1.35;;;13.10;99.90;;;15.44;49.95;98066.34;5043057;27;121460;-76
2022/05/28 10:01:14;;;;;;;3.25;1.40;;;13.00;99.90;;;15.13;49.93;98064.09;5041403;27;131557;-75
2022/05/28 10:06:32;;;;;;;3.88;1.40;;;12.80;99.90;;;15.37;49.12;98062.75;5038319;27;119550;-75
2022/05/28 10:09:12;;;;;;;4.05;1.17;;;13.00;99.90;;;15.52;49.03;98064.44;5036632;27;119969;-75
2022/05/28 10:11:54;;;;;;;7.90;1.73;;;13.10;99.90;;;16.01;48.62;98073.38;5036795;27;129890;-75
2022/05/28 10:14:24;;;;;;;6.78;1.58;;;13.60;99.90;;;15.91;47.30;98068.63;5037868;27;129539;-72
2022/05/28 10:17:00;;;;;;;3.40;1.20;;;12.90;99.90;;;15.51;47.51;98078.50;5050142;27;119334;-75
2022/05/28 10:19:35;;;;;;;4.05;1.52;;;12.40;99.90;;;15.12;48.34;98076.22;5058073;27;120232;-75
2022/05/28 10:22:13;;;;;;;7.00;1.50;;;12.30;99.90;;;14.90;49.90;98062.34;5053532;27;129853;-75
2022/05/28 10:24:50;;;;;;;3.83;1.63;;;12.40;99.90;;;14.82;51.29;98066.16;5043301;27;129757;-77
2022/05/28 10:27:33;;;;;;;4.75;1.70;;;12.50;99.90;;;14.92;51.32;98066.25;5042746;27;118646;-72
2022/05/28 10:30:07;;;;;;;5.03;1.40;;;12.40;99.90;;;15.17;49.41;98065.72;5058280;27;118562;-74
2022/05/28 10:32:49;;;;;;;3.88;1.38;;;12.50;99.90;;;15.17;50.22;98068.44;5057305;27;130451;-76
2022/05/28 10:35:23;;;;;;;8.30;1.80;;;12.60;99.90;;;15.16;50.42;98079.75;5025751;27;128693;-74
2022/05/28 10:37:52;;;;;;;5.47;1.38;;;12.50;99.90;;;15.05;50.54;98069.53;5058053;27;120080;-74
2022/05/28 10:40:25;;;;;;;3.75;1.60;;;12.40;99.90;;;14.98;50.35;98063.97;5044704;27;119587;-73
2022/05/28 10:42:59;;;;;;;4.63;1.20;;;12.20;99.90;;;14.77;52.15;98066.50;5037250;27;130325;-76
2022/05/28 10:45:37;;;;;;;4.65;1.55;;;12.30;99.90;;;14.95;51.93;98064.72;5036844;27;129709;-72
2022/05/28 10:48:34;;;;;;;7.07;1.95;;;12.70;99.90;;;15.26;50.83;98057.22;5036073;27;122309;-74